sensor_id;sensor_type;location;lat;lon;timestamp;P1;durP1;ratioP1;P2;durP2;ratioP2
62724;SDS011;49026;52.600;4.694;2024-02-04T00:01:01;21.88;;;3.90;;
62724;SDS011;49026;52.600;4.694;2024-02-04T00:03:26;12.60;;;3.67;;
62724;SDS011;49026;52.600;4.694;2024-02-04T00:05:51;14.02;;;3.10;;
62724;SDS011;49026;52.600;4.694;2024-02-04T00:08:17;13.93;;;3.20;;
62724;SDS011;49026;52.600;4.694;2024-02-04T00:10:45;14.60;;;3.58;;
62724;SDS011;49026;52.600;4.694;2024-02-04T00:13:10;17.52;;;4.18;;
62724;SDS011;49026;52.600;4.694;2024-02-04T00:15:36;14.82;;;3.08;;
62724;SDS011;49026;52.600;4.694;2024-02-04T00:18:01;16.95;;;3.67;;
62724;SDS011;49026;52.600;4.694;2024-02-04T00:20:26;22.55;;;4.22;;
62724;SDS011;49026;52.600;4.694;2024-02-04T00:22:54;17.20;;;4.43;;
62724;SDS011;49026;52.600;4.694;2024-02-04T00:25:19;17.23;;;4.03;;
62724;SDS011;49026;52.600;4.694;2024-02-04T00:27:48;13.07;;;3.35;;
62724;SDS011;49026;52.600;4.694;2024-02-04T00:30:16;13.18;;;3.22;;
62724;SDS011;49026;52.600;4.694;2024-02-04T00:32:41;13.75;;;3.53;;
62724;SDS011;49026;52.600;4.694;2024-02-04T00:35:06;17.90;;;3.97;;
62724;SDS011;49026;52.600;4.694;2024-02-04T00:37:32;15.48;;;3.63;;
62724;SDS011;49026;52.600;4.694;2024-02-04T00:39:59;23.27;;;4.10;;
62724;SDS011;49026;52.600;4.694;2024-02-04T00:42:27;16.08;;;3.65;;
62724;SDS011;49026;52.600;4.694;2024-02-04T00:44:52;20.30;;;4.05;;
62724;SDS011;49026;52.600;4.694;2024-02-04T00:47:18;18.70;;;4.18;;
62724;SDS011;49026;52.600;4.694;2024-02-04T00:49:43;14.48;;;4.20;;
62724;SDS011;49026;52.600;4.694;2024-02-04T00:52:11;24.52;;;4.13;;
62724;SDS011;49026;52.600;4.694;2024-02-04T00:54:36;13.40;;;3.17;;
62724;SDS011;49026;52.600;4.694;2024-02-04T00:57:04;15.90;;;2.85;;
62724;SDS011;49026;52.600;4.694;2024-02-04T00:59:30;9.60;;;2.60;;
62724;SDS011;49026;52.600;4.694;2024-02-04T01:01:59;11.23;;;2.58;;
62724;SDS011;49026;52.600;4.694;2024-02-04T01:04:25;13.48;;;2.53;;
62724;SDS011;49026;52.600;4.694;2024-02-04T01:06:50;18.90;;;2.97;;
62724;SDS011;49026;52.600;4.694;2024-02-04T01:09:15;17.10;;;2.88;;
62724;SDS011;49026;52.600;4.694;2024-02-04T01:11:41;15.88;;;2.42;;
62724;SDS011;49026;52.600;4.694;2024-02-04T01:14:06;8.48;;;1.83;;
62724;SDS011;49026;52.600;4.694;2024-02-04T01:16:31;13.77;;;1.98;;
62724;SDS011;49026;52.600;4.694;2024-02-04T01:18:56;16.20;;;2.40;;
62724;SDS011;49026;52.600;4.694;2024-02-04T01:21:22;16.52;;;2.70;;
62724;SDS011;49026;52.600;4.694;2024-02-04T01:23:47;11.18;;;2.53;;
62724;SDS011;49026;52.600;4.694;2024-02-04T01:26:12;26.65;;;2.97;;
62724;SDS011;49026;52.600;4.694;2024-02-04T01:28:40;19.30;;;2.53;;
62724;SDS011;49026;52.600;4.694;2024-02-04T01:31:05;12.48;;;2.50;;
62724;SDS011;49026;52.600;4.694;2024-02-04T01:33:31;12.25;;;1.85;;
62724;SDS011;49026;52.600;4.694;2024-02-04T01:35:56;16.05;;;2.63;;
62724;SDS011;49026;52.600;4.694;2024-02-04T01:38:26;11.13;;;1.98;;
62724;SDS011;49026;52.600;4.694;2024-02-04T01:40:51;12.82;;;1.77;;
62724;SDS011;49026;52.600;4.694;2024-02-04T01:43:18;15.65;;;2.13;;
62724;SDS011;49026;52.600;4.694;2024-02-04T01:45:46;10.88;;;2.88;;
62724;SDS011;49026;52.600;4.694;2024-02-04T01:48:14;12.43;;;2.42;;
62724;SDS011;49026;52.600;4.694;2024-02-04T01:50:40;16.85;;;1.70;;
62724;SDS011;49026;52.600;4.694;2024-02-04T01:53:08;9.93;;;2.08;;
62724;SDS011;49026;52.600;4.694;2024-02-04T01:55:34;9.85;;;1.67;;
62724;SDS011;49026;52.600;4.694;2024-02-04T01:58:01;12.50;;;2.03;;
62724;SDS011;49026;52.600;4.694;2024-02-04T02:00:27;18.35;;;2.55;;
62724;SDS011;49026;52.600;4.694;2024-02-04T02:02:52;12.98;;;2.28;;
62724;SDS011;49026;52.600;4.694;2024-02-04T02:05:18;14.05;;;2.15;;
62724;SDS011;49026;52.600;4.694;2024-02-04T02:07:43;14.18;;;2.08;;
62724;SDS011;49026;52.600;4.694;2024-02-04T02:10:10;11.65;;;1.85;;
62724;SDS011;49026;52.600;4.694;2024-02-04T02:12:47;10.82;;;1.80;;
62724;SDS011;49026;52.600;4.694;2024-02-04T02:15:21;7.22;;;1.55;;
62724;SDS011;49026;52.600;4.694;2024-02-04T02:17:53;18.02;;;2.30;;
62724;SDS011;49026;52.600;4.694;2024-02-04T02:20:23;16.13;;;2.42;;
62724;SDS011;49026;52.600;4.694;2024-02-04T02:25:36;17.05;;;2.30;;
62724;SDS011;49026;52.600;4.694;2024-02-04T02:28:02;22.58;;;3.63;;
62724;SDS011;49026;52.600;4.694;2024-02-04T02:30:30;19.38;;;2.63;;
62724;SDS011;49026;52.600;4.694;2024-02-04T02:32:56;10.82;;;2.53;;
62724;SDS011;49026;52.600;4.694;2024-02-04T02:35:25;18.10;;;3.13;;
62724;SDS011;49026;52.600;4.694;2024-02-04T02:37:59;21.13;;;3.40;;
62724;SDS011;49026;52.600;4.694;2024-02-04T02:40:45;16.52;;;2.47;;
62724;SDS011;49026;52.600;4.694;2024-02-04T02:43:12;21.65;;;2.70;;
62724;SDS011;49026;52.600;4.694;2024-02-04T02:45:41;23.20;;;3.55;;
62724;SDS011;49026;52.600;4.694;2024-02-04T02:48:10;24.58;;;3.25;;
62724;SDS011;49026;52.600;4.694;2024-02-04T02:50:36;6.50;;;2.17;;
62724;SDS011;49026;52.600;4.694;2024-02-04T02:53:02;13.25;;;3.03;;
62724;SDS011;49026;52.600;4.694;2024-02-04T02:55:28;18.23;;;2.45;;
62724;SDS011;49026;52.600;4.694;2024-02-04T02:57:55;13.75;;;3.58;;
62724;SDS011;49026;52.600;4.694;2024-02-04T03:00:21;33.15;;;3.78;;
62724;SDS011;49026;52.600;4.694;2024-02-04T03:02:46;14.05;;;2.67;;
62724;SDS011;49026;52.600;4.694;2024-02-04T03:05:12;21.65;;;2.90;;
62724;SDS011;49026;52.600;4.694;2024-02-04T03:07:37;19.55;;;2.72;;
62724;SDS011;49026;52.600;4.694;2024-02-04T03:10:03;11.38;;;2.55;;
62724;SDS011;49026;52.600;4.694;2024-02-04T03:12:30;22.80;;;3.85;;
62724;SDS011;49026;52.600;4.694;2024-02-04T03:14:58;14.40;;;2.40;;
62724;SDS011;49026;52.600;4.694;2024-02-04T03:17:23;10.20;;;2.30;;
62724;SDS011;49026;52.600;4.694;2024-02-04T03:19:53;10.85;;;2.03;;
62724;SDS011;49026;52.600;4.694;2024-02-04T03:22:21;15.30;;;2.05;;
62724;SDS011;49026;52.600;4.694;2024-02-04T03:24:47;13.70;;;2.50;;
62724;SDS011;49026;52.600;4.694;2024-02-04T03:27:13;11.82;;;2.67;;
62724;SDS011;49026;52.600;4.694;2024-02-04T03:29:38;18.90;;;2.75;;
62724;SDS011;49026;52.600;4.694;2024-02-04T03:32:03;16.20;;;3.03;;
62724;SDS011;49026;52.600;4.694;2024-02-04T03:34:31;12.02;;;2.03;;
62724;SDS011;49026;52.600;4.694;2024-02-04T03:36:57;10.60;;;2.03;;
62724;SDS011;49026;52.600;4.694;2024-02-04T03:39:22;19.70;;;2.45;;
62724;SDS011;49026;52.600;4.694;2024-02-04T03:41:49;14.07;;;2.25;;
62724;SDS011;49026;52.600;4.694;2024-02-04T03:44:15;20.58;;;2.80;;
62724;SDS011;49026;52.600;4.694;2024-02-04T03:46:40;18.48;;;2.85;;
62724;SDS011;49026;52.600;4.694;2024-02-04T03:49:06;16.45;;;3.88;;
62724;SDS011;49026;52.600;4.694;2024-02-04T03:51:32;14.68;;;2.40;;
62724;SDS011;49026;52.600;4.694;2024-02-04T03:53:57;19.17;;;2.65;;
62724;SDS011;49026;52.600;4.694;2024-02-04T03:56:25;13.88;;;2.22;;
62724;SDS011;49026;52.600;4.694;2024-02-04T03:58:50;17.23;;;2.58;;
62724;SDS011;49026;52.600;4.694;2024-02-04T04:01:16;16.00;;;2.80;;
62724;SDS011;49026;52.600;4.694;2024-02-04T04:03:41;20.63;;;2.65;;
62724;SDS011;49026;52.600;4.694;2024-02-04T04:06:10;20.77;;;3.33;;
62724;SDS011;49026;52.600;4.694;2024-02-04T04:08:36;22.05;;;3.13;;
62724;SDS011;49026;52.600;4.694;2024-02-04T04:11:04;16.65;;;2.55;;
62724;SDS011;49026;52.600;4.694;2024-02-04T04:13:30;15.75;;;2.35;;
62724;SDS011;49026;52.600;4.694;2024-02-04T04:15:59;12.68;;;2.53;;
62724;SDS011;49026;52.600;4.694;2024-02-04T04:18:24;10.80;;;2.15;;
62724;SDS011;49026;52.600;4.694;2024-02-04T04:20:52;14.55;;;2.40;;
62724;SDS011;49026;52.600;4.694;2024-02-04T04:23:17;14.82;;;2.65;;
62724;SDS011;49026;52.600;4.694;2024-02-04T04:25:42;13.88;;;2.17;;
62724;SDS011;49026;52.600;4.694;2024-02-04T04:28:07;13.45;;;2.72;;
62724;SDS011;49026;52.600;4.694;2024-02-04T04:30:33;19.58;;;3.25;;
62724;SDS011;49026;52.600;4.694;2024-02-04T04:32:58;31.02;;;3.60;;
62724;SDS011;49026;52.600;4.694;2024-02-04T04:35:24;16.48;;;2.80;;
62724;SDS011;49026;52.600;4.694;2024-02-04T04:37:53;29.73;;;3.55;;
62724;SDS011;49026;52.600;4.694;2024-02-04T04:40:18;17.40;;;2.88;;
62724;SDS011;49026;52.600;4.694;2024-02-04T04:42:43;15.50;;;2.50;;
62724;SDS011;49026;52.600;4.694;2024-02-04T04:45:11;17.48;;;3.70;;
62724;SDS011;49026;52.600;4.694;2024-02-04T04:47:36;15.05;;;2.55;;
62724;SDS011;49026;52.600;4.694;2024-02-04T04:50:04;13.50;;;2.53;;
62724;SDS011;49026;52.600;4.694;2024-02-04T04:52:30;15.48;;;2.35;;
62724;SDS011;49026;52.600;4.694;2024-02-04T04:54:58;19.60;;;2.63;;
62724;SDS011;49026;52.600;4.694;2024-02-04T04:57:25;21.67;;;2.72;;
62724;SDS011;49026;52.600;4.694;2024-02-04T04:59:51;19.67;;;3.03;;
62724;SDS011;49026;52.600;4.694;2024-02-04T05:02:16;25.05;;;3.17;;
62724;SDS011;49026;52.600;4.694;2024-02-04T05:04:42;17.98;;;3.28;;
62724;SDS011;49026;52.600;4.694;2024-02-04T05:07:09;19.45;;;2.92;;
62724;SDS011;49026;52.600;4.694;2024-02-04T05:09:34;22.88;;;3.58;;
62724;SDS011;49026;52.600;4.694;2024-02-04T05:12:02;16.45;;;2.45;;
62724;SDS011;49026;52.600;4.694;2024-02-04T05:14:30;23.77;;;2.53;;
62724;SDS011;49026;52.600;4.694;2024-02-04T05:16:56;17.05;;;2.92;;
62724;SDS011;49026;52.600;4.694;2024-02-04T05:19:21;19.70;;;2.25;;
62724;SDS011;49026;52.600;4.694;2024-02-04T05:21:46;16.55;;;2.67;;
62724;SDS011;49026;52.600;4.694;2024-02-04T05:24:12;14.63;;;2.28;;
62724;SDS011;49026;52.600;4.694;2024-02-04T05:26:37;20.58;;;2.65;;
62724;SDS011;49026;52.600;4.694;2024-02-04T05:29:04;18.08;;;2.88;;
62724;SDS011;49026;52.600;4.694;2024-02-04T05:31:32;17.17;;;2.55;;
62724;SDS011;49026;52.600;4.694;2024-02-04T05:33:57;9.90;;;1.95;;
62724;SDS011;49026;52.600;4.694;2024-02-04T05:36:23;18.23;;;2.58;;
62724;SDS011;49026;52.600;4.694;2024-02-04T05:38:51;20.27;;;2.45;;
62724;SDS011;49026;52.600;4.694;2024-02-04T05:41:16;9.27;;;2.00;;
62724;SDS011;49026;52.600;4.694;2024-02-04T05:43:43;14.35;;;2.28;;
62724;SDS011;49026;52.600;4.694;2024-02-04T05:46:13;12.88;;;2.55;;
62724;SDS011;49026;52.600;4.694;2024-02-04T05:48:38;15.82;;;2.47;;
62724;SDS011;49026;52.600;4.694;2024-02-04T05:51:05;14.10;;;2.60;;
62724;SDS011;49026;52.600;4.694;2024-02-04T05:53:30;12.98;;;2.00;;
62724;SDS011;49026;52.600;4.694;2024-02-04T05:55:58;9.75;;;2.33;;
62724;SDS011;49026;52.600;4.694;2024-02-04T05:58:23;16.73;;;2.38;;
62724;SDS011;49026;52.600;4.694;2024-02-04T06:00:49;17.83;;;2.70;;
62724;SDS011;49026;52.600;4.694;2024-02-04T06:03:16;9.00;;;1.83;;
62724;SDS011;49026;52.600;4.694;2024-02-04T06:05:41;14.90;;;2.22;;
62724;SDS011;49026;52.600;4.694;2024-02-04T06:08:06;13.27;;;1.85;;
62724;SDS011;49026;52.600;4.694;2024-02-04T06:10:32;13.73;;;2.45;;
62724;SDS011;49026;52.600;4.694;2024-02-04T06:12:57;12.32;;;1.95;;
62724;SDS011;49026;52.600;4.694;2024-02-04T06:15:24;11.80;;;1.95;;
62724;SDS011;49026;52.600;4.694;2024-02-04T06:17:50;6.97;;;2.15;;
62724;SDS011;49026;52.600;4.694;2024-02-04T06:20:15;10.85;;;2.10;;
62724;SDS011;49026;52.600;4.694;2024-02-04T06:22:40;10.07;;;2.40;;
62724;SDS011;49026;52.600;4.694;2024-02-04T06:25:08;13.68;;;2.20;;
62724;SDS011;49026;52.600;4.694;2024-02-04T06:27:36;10.07;;;1.85;;
62724;SDS011;49026;52.600;4.694;2024-02-04T06:30:01;7.22;;;2.25;;
62724;SDS011;49026;52.600;4.694;2024-02-04T06:32:26;10.57;;;2.75;;
62724;SDS011;49026;52.600;4.694;2024-02-04T06:34:54;10.07;;;2.22;;
62724;SDS011;49026;52.600;4.694;2024-02-04T06:37:20;9.15;;;2.80;;
62724;SDS011;49026;52.600;4.694;2024-02-04T06:39:50;10.20;;;2.05;;
62724;SDS011;49026;52.600;4.694;2024-02-04T06:42:15;11.13;;;2.08;;
62724;SDS011;49026;52.600;4.694;2024-02-04T06:44:44;9.55;;;2.13;;
62724;SDS011;49026;52.600;4.694;2024-02-04T06:47:10;6.50;;;1.90;;
62724;SDS011;49026;52.600;4.694;2024-02-04T06:49:37;10.75;;;2.80;;
62724;SDS011;49026;52.600;4.694;2024-02-04T06:52:03;8.45;;;1.90;;
62724;SDS011;49026;52.600;4.694;2024-02-04T06:54:31;8.27;;;2.45;;
62724;SDS011;49026;52.600;4.694;2024-02-04T06:56:59;7.38;;;2.13;;
62724;SDS011;49026;52.600;4.694;2024-02-04T06:59:24;9.80;;;2.90;;
62724;SDS011;49026;52.600;4.694;2024-02-04T07:01:49;8.63;;;2.50;;
62724;SDS011;49026;52.600;4.694;2024-02-04T07:04:15;9.95;;;2.75;;
62724;SDS011;49026;52.600;4.694;2024-02-04T07:06:40;10.80;;;2.97;;
62724;SDS011;49026;52.600;4.694;2024-02-04T07:09:08;11.73;;;2.60;;
62724;SDS011;49026;52.600;4.694;2024-02-04T07:11:36;7.03;;;2.22;;
62724;SDS011;49026;52.600;4.694;2024-02-04T07:14:03;11.00;;;2.40;;
62724;SDS011;49026;52.600;4.694;2024-02-04T07:16:30;11.57;;;2.55;;
62724;SDS011;49026;52.600;4.694;2024-02-04T07:18:56;12.98;;;3.33;;
62724;SDS011;49026;52.600;4.694;2024-02-04T07:21:23;11.90;;;2.70;;
62724;SDS011;49026;52.600;4.694;2024-02-04T07:23:49;9.65;;;3.13;;
62724;SDS011;49026;52.600;4.694;2024-02-04T07:26:14;10.18;;;3.72;;
62724;SDS011;49026;52.600;4.694;2024-02-04T07:28:39;11.73;;;4.55;;
62724;SDS011;49026;52.600;4.694;2024-02-04T07:31:05;10.07;;;4.68;;
62724;SDS011;49026;52.600;4.694;2024-02-04T07:33:30;14.10;;;5.15;;
62724;SDS011;49026;52.600;4.694;2024-02-04T07:35:55;19.80;;;6.88;;
62724;SDS011;49026;52.600;4.694;2024-02-04T07:38:23;16.45;;;5.60;;
62724;SDS011;49026;52.600;4.694;2024-02-04T07:40:48;22.65;;;7.22;;
62724;SDS011;49026;52.600;4.694;2024-02-04T07:43:16;18.15;;;6.15;;
62724;SDS011;49026;52.600;4.694;2024-02-04T07:45:42;18.65;;;5.25;;
62724;SDS011;49026;52.600;4.694;2024-02-04T07:48:07;22.70;;;5.25;;
62724;SDS011;49026;52.600;4.694;2024-02-04T07:50:34;15.57;;;4.57;;
62724;SDS011;49026;52.600;4.694;2024-02-04T07:52:59;21.70;;;4.93;;
62724;SDS011;49026;52.600;4.694;2024-02-04T07:55:27;22.33;;;4.82;;
62724;SDS011;49026;52.600;4.694;2024-02-04T07:57:52;16.83;;;5.93;;
62724;SDS011;49026;52.600;4.694;2024-02-04T08:00:18;17.65;;;4.45;;
62724;SDS011;49026;52.600;4.694;2024-02-04T08:02:45;15.07;;;3.97;;
62724;SDS011;49026;52.600;4.694;2024-02-04T08:05:12;12.02;;;3.55;;
62724;SDS011;49026;52.600;4.694;2024-02-04T08:07:37;14.20;;;3.35;;
62724;SDS011;49026;52.600;4.694;2024-02-04T08:10:06;16.10;;;5.10;;
62724;SDS011;49026;52.600;4.694;2024-02-04T08:12:32;13.25;;;4.03;;
62724;SDS011;49026;52.600;4.694;2024-02-04T08:14:57;12.27;;;3.17;;
62724;SDS011;49026;52.600;4.694;2024-02-04T08:17:22;9.43;;;2.97;;
62724;SDS011;49026;52.600;4.694;2024-02-04T08:19:48;18.52;;;3.92;;
62724;SDS011;49026;52.600;4.694;2024-02-04T08:22:13;14.20;;;3.28;;
62724;SDS011;49026;52.600;4.694;2024-02-04T08:24:39;16.55;;;3.67;;
62724;SDS011;49026;52.600;4.694;2024-02-04T08:27:06;21.40;;;3.10;;
62724;SDS011;49026;52.600;4.694;2024-02-04T08:29:31;13.85;;;3.53;;
62724;SDS011;49026;52.600;4.694;2024-02-04T08:31:57;12.05;;;3.28;;
62724;SDS011;49026;52.600;4.694;2024-02-04T08:34:22;16.08;;;3.60;;
62724;SDS011;49026;52.600;4.694;2024-02-04T08:36:50;21.98;;;3.90;;
62724;SDS011;49026;52.600;4.694;2024-02-04T08:39:16;22.90;;;4.65;;
62724;SDS011;49026;52.600;4.694;2024-02-04T08:41:41;18.80;;;3.50;;
62724;SDS011;49026;52.600;4.694;2024-02-04T08:44:07;17.27;;;3.30;;
62724;SDS011;49026;52.600;4.694;2024-02-04T08:46:32;14.13;;;4.22;;
62724;SDS011;49026;52.600;4.694;2024-02-04T08:48:57;13.45;;;4.13;;
62724;SDS011;49026;52.600;4.694;2024-02-04T08:51:25;17.90;;;5.10;;
62724;SDS011;49026;52.600;4.694;2024-02-04T08:53:52;12.90;;;3.20;;
62724;SDS011;49026;52.600;4.694;2024-02-04T08:56:20;14.10;;;3.75;;
62724;SDS011;49026;52.600;4.694;2024-02-04T08:58:45;30.17;;;4.18;;
62724;SDS011;49026;52.600;4.694;2024-02-04T09:01:13;14.27;;;3.95;;
62724;SDS011;49026;52.600;4.694;2024-02-04T09:03:38;37.15;;;4.63;;
62724;SDS011;49026;52.600;4.694;2024-02-04T09:06:03;23.05;;;4.15;;
62724;SDS011;49026;52.600;4.694;2024-02-04T09:08:29;28.73;;;4.00;;
62724;SDS011;49026;52.600;4.694;2024-02-04T09:10:54;34.30;;;4.40;;
62724;SDS011;49026;52.600;4.694;2024-02-04T09:13:20;20.38;;;3.38;;
62724;SDS011;49026;52.600;4.694;2024-02-04T09:15:45;13.82;;;2.92;;
62724;SDS011;49026;52.600;4.694;2024-02-04T09:18:13;34.97;;;5.25;;
62724;SDS011;49026;52.600;4.694;2024-02-04T09:20:38;22.88;;;3.80;;
62724;SDS011;49026;52.600;4.694;2024-02-04T09:23:05;20.90;;;3.60;;
62724;SDS011;49026;52.600;4.694;2024-02-04T09:25:31;23.95;;;3.92;;
62724;SDS011;49026;52.600;4.694;2024-02-04T09:27:56;19.85;;;3.05;;
62724;SDS011;49026;52.600;4.694;2024-02-04T09:30:23;21.50;;;4.30;;
62724;SDS011;49026;52.600;4.694;2024-02-04T09:32:49;25.63;;;4.35;;
62724;SDS011;49026;52.600;4.694;2024-02-04T09:35:14;22.33;;;3.88;;
62724;SDS011;49026;52.600;4.694;2024-02-04T09:37:39;16.30;;;2.85;;
62724;SDS011;49026;52.600;4.694;2024-02-04T09:40:05;25.38;;;3.58;;
62724;SDS011;49026;52.600;4.694;2024-02-04T09:42:30;14.00;;;2.35;;
62724;SDS011;49026;52.600;4.694;2024-02-04T09:44:56;14.73;;;2.92;;
62724;SDS011;49026;52.600;4.694;2024-02-04T09:47:24;22.98;;;3.80;;
62724;SDS011;49026;52.600;4.694;2024-02-04T09:49:53;17.73;;;3.15;;
62724;SDS011;49026;52.600;4.694;2024-02-04T09:52:21;15.43;;;2.13;;
62724;SDS011;49026;52.600;4.694;2024-02-04T09:54:59;20.20;;;2.97;;
62724;SDS011;49026;52.600;4.694;2024-02-04T09:57:26;26.60;;;3.53;;
62724;SDS011;49026;52.600;4.694;2024-02-04T09:59:51;15.32;;;2.78;;
62724;SDS011;49026;52.600;4.694;2024-02-04T10:02:16;11.45;;;2.60;;
62724;SDS011;49026;52.600;4.694;2024-02-04T10:04:42;17.17;;;3.05;;
62724;SDS011;49026;52.600;4.694;2024-02-04T10:07:07;14.50;;;2.67;;
62724;SDS011;49026;52.600;4.694;2024-02-04T10:09:33;16.38;;;4.40;;
62724;SDS011;49026;52.600;4.694;2024-02-04T10:11:59;20.88;;;2.70;;
62724;SDS011;49026;52.600;4.694;2024-02-04T10:14:24;15.10;;;2.58;;
62724;SDS011;49026;52.600;4.694;2024-02-04T10:16:49;21.45;;;3.75;;
62724;SDS011;49026;52.600;4.694;2024-02-04T10:19:15;24.50;;;3.65;;
62724;SDS011;49026;52.600;4.694;2024-02-04T10:21:40;14.40;;;2.03;;
62724;SDS011;49026;52.600;4.694;2024-02-04T10:24:08;14.02;;;2.50;;
62724;SDS011;49026;52.600;4.694;2024-02-04T10:26:34;11.35;;;2.47;;
62724;SDS011;49026;52.600;4.694;2024-02-04T10:29:02;22.77;;;2.85;;
62724;SDS011;49026;52.600;4.694;2024-02-04T10:31:28;17.25;;;3.20;;
62724;SDS011;49026;52.600;4.694;2024-02-04T10:33:54;16.45;;;2.63;;
62724;SDS011;49026;52.600;4.694;2024-02-04T10:36:21;5.75;;;1.88;;
62724;SDS011;49026;52.600;4.694;2024-02-04T10:38:54;18.92;;;2.42;;
62724;SDS011;49026;52.600;4.694;2024-02-04T10:41:20;12.38;;;2.20;;
62724;SDS011;49026;52.600;4.694;2024-02-04T10:43:46;17.05;;;2.47;;
62724;SDS011;49026;52.600;4.694;2024-02-04T10:46:18;17.65;;;2.58;;
62724;SDS011;49026;52.600;4.694;2024-02-04T10:48:49;19.63;;;2.75;;
62724;SDS011;49026;52.600;4.694;2024-02-04T10:51:24;24.27;;;3.33;;
62724;SDS011;49026;52.600;4.694;2024-02-04T10:53:51;25.70;;;3.60;;
62724;SDS011;49026;52.600;4.694;2024-02-04T10:56:42;20.75;;;3.30;;
62724;SDS011;49026;52.600;4.694;2024-02-04T10:59:19;13.50;;;2.22;;
62724;SDS011;49026;52.600;4.694;2024-02-04T11:01:49;17.63;;;2.42;;
62724;SDS011;49026;52.600;4.694;2024-02-04T11:04:15;17.80;;;2.85;;
62724;SDS011;49026;52.600;4.694;2024-02-04T11:06:42;15.25;;;2.80;;
62724;SDS011;49026;52.600;4.694;2024-02-04T11:09:08;15.43;;;2.63;;
62724;SDS011;49026;52.600;4.694;2024-02-04T11:11:37;21.60;;;2.58;;
62724;SDS011;49026;52.600;4.694;2024-02-04T11:14:04;14.32;;;2.63;;
62724;SDS011;49026;52.600;4.694;2024-02-04T11:22:08;22.58;;;2.85;;
62724;SDS011;49026;52.600;4.694;2024-02-04T11:27:32;15.65;;;2.20;;
62724;SDS011;49026;52.600;4.694;2024-02-04T11:29:58;18.35;;;2.30;;
62724;SDS011;49026;52.600;4.694;2024-02-04T11:32:26;9.48;;;1.38;;
62724;SDS011;49026;52.600;4.694;2024-02-04T11:34:53;16.90;;;2.30;;
62724;SDS011;49026;52.600;4.694;2024-02-04T11:37:19;14.45;;;1.88;;
62724;SDS011;49026;52.600;4.694;2024-02-04T11:39:51;11.95;;;2.15;;
62724;SDS011;49026;52.600;4.694;2024-02-04T11:42:18;13.00;;;2.17;;
62724;SDS011;49026;52.600;4.694;2024-02-04T11:44:44;19.67;;;2.42;;
62724;SDS011;49026;52.600;4.694;2024-02-04T11:47:10;15.52;;;2.20;;
62724;SDS011;49026;52.600;4.694;2024-02-04T11:49:36;17.65;;;2.83;;
62724;SDS011;49026;52.600;4.694;2024-02-04T11:52:01;13.13;;;1.80;;
62724;SDS011;49026;52.600;4.694;2024-02-04T11:54:27;14.48;;;2.85;;
62724;SDS011;49026;52.600;4.694;2024-02-04T11:56:52;17.38;;;3.00;;
62724;SDS011;49026;52.600;4.694;2024-02-04T11:59:21;10.55;;;2.35;;
62724;SDS011;49026;52.600;4.694;2024-02-04T12:01:48;12.48;;;2.92;;
62724;SDS011;49026;52.600;4.694;2024-02-04T12:04:17;13.20;;;2.92;;
62724;SDS011;49026;52.600;4.694;2024-02-04T12:06:42;14.55;;;2.45;;
62724;SDS011;49026;52.600;4.694;2024-02-04T12:09:10;17.40;;;3.67;;
62724;SDS011;49026;52.600;4.694;2024-02-04T12:11:38;15.35;;;3.05;;
62724;SDS011;49026;52.600;4.694;2024-02-04T12:14:07;11.13;;;2.22;;
62724;SDS011;49026;52.600;4.694;2024-02-04T12:16:32;9.80;;;2.88;;
62724;SDS011;49026;52.600;4.694;2024-02-04T12:19:04;13.20;;;2.63;;
62724;SDS011;49026;52.600;4.694;2024-02-04T12:21:29;19.63;;;2.40;;
62724;SDS011;49026;52.600;4.694;2024-02-04T12:23:55;14.20;;;2.60;;
62724;SDS011;49026;52.600;4.694;2024-02-04T12:26:23;16.98;;;2.70;;
62724;SDS011;49026;52.600;4.694;2024-02-04T12:28:50;15.32;;;2.55;;
62724;SDS011;49026;52.600;4.694;2024-02-04T12:31:19;12.98;;;1.80;;
62724;SDS011;49026;52.600;4.694;2024-02-04T12:34:18;21.35;;;3.13;;
62724;SDS011;49026;52.600;4.694;2024-02-04T12:36:40;24.05;;;3.55;;
62724;SDS011;49026;52.600;4.694;2024-02-04T12:39:07;24.30;;;2.80;;
62724;SDS011;49026;52.600;4.694;2024-02-04T12:41:37;17.42;;;3.08;;
62724;SDS011;49026;52.600;4.694;2024-02-04T12:44:04;14.20;;;2.30;;
62724;SDS011;49026;52.600;4.694;2024-02-04T12:46:30;13.32;;;2.35;;
62724;SDS011;49026;52.600;4.694;2024-02-04T12:48:58;18.20;;;3.22;;
62724;SDS011;49026;52.600;4.694;2024-02-04T12:51:27;19.42;;;2.85;;
62724;SDS011;49026;52.600;4.694;2024-02-04T12:56:51;25.20;;;2.95;;
62724;SDS011;49026;52.600;4.694;2024-02-04T13:01:53;17.83;;;2.58;;
62724;SDS011;49026;52.600;4.694;2024-02-04T13:04:20;18.05;;;2.97;;
62724;SDS011;49026;52.600;4.694;2024-02-04T13:06:45;16.00;;;3.10;;
62724;SDS011;49026;52.600;4.694;2024-02-04T13:09:11;18.50;;;3.17;;
62724;SDS011;49026;52.600;4.694;2024-02-04T13:11:40;19.52;;;3.13;;
62724;SDS011;49026;52.600;4.694;2024-02-04T13:14:06;17.67;;;2.55;;
62724;SDS011;49026;52.600;4.694;2024-02-04T13:16:33;18.67;;;2.63;;
62724;SDS011;49026;52.600;4.694;2024-02-04T13:19:01;20.35;;;3.05;;
62724;SDS011;49026;52.600;4.694;2024-02-04T13:21:29;23.90;;;2.50;;
62724;SDS011;49026;52.600;4.694;2024-02-04T13:23:54;22.23;;;3.55;;
62724;SDS011;49026;52.600;4.694;2024-02-04T13:26:19;29.60;;;3.15;;
62724;SDS011;49026;52.600;4.694;2024-02-04T13:28:45;29.48;;;3.20;;
62724;SDS011;49026;52.600;4.694;2024-02-04T13:31:13;21.88;;;3.13;;
62724;SDS011;49026;52.600;4.694;2024-02-04T13:33:39;47.92;;;4.22;;
62724;SDS011;49026;52.600;4.694;2024-02-04T13:36:05;21.10;;;3.10;;
62724;SDS011;49026;52.600;4.694;2024-02-04T13:38:35;21.58;;;2.85;;
62724;SDS011;49026;52.600;4.694;2024-02-04T13:41:02;22.88;;;2.97;;
62724;SDS011;49026;52.600;4.694;2024-02-04T13:43:33;30.20;;;3.97;;
62724;SDS011;49026;52.600;4.694;2024-02-04T13:46:01;28.30;;;3.30;;
62724;SDS011;49026;52.600;4.694;2024-02-04T13:48:26;20.02;;;3.83;;
62724;SDS011;49026;52.600;4.694;2024-02-04T13:50:52;16.80;;;2.92;;
62724;SDS011;49026;52.600;4.694;2024-02-04T13:53:19;19.23;;;3.70;;
62724;SDS011;49026;52.600;4.694;2024-02-04T13:55:44;21.88;;;2.97;;
62724;SDS011;49026;52.600;4.694;2024-02-04T13:58:12;17.45;;;3.08;;
62724;SDS011;49026;52.600;4.694;2024-02-04T14:00:37;16.85;;;3.42;;
62724;SDS011;49026;52.600;4.694;2024-02-04T14:03:03;18.45;;;2.75;;
62724;SDS011;49026;52.600;4.694;2024-02-04T14:05:28;21.92;;;3.00;;
62724;SDS011;49026;52.600;4.694;2024-02-04T14:07:53;24.15;;;2.92;;
62724;SDS011;49026;52.600;4.694;2024-02-04T14:10:19;28.58;;;4.40;;
62724;SDS011;49026;52.600;4.694;2024-02-04T14:12:44;24.20;;;2.90;;
62724;SDS011;49026;52.600;4.694;2024-02-04T14:15:10;14.30;;;2.55;;
62724;SDS011;49026;52.600;4.694;2024-02-04T14:17:36;22.98;;;3.65;;
62724;SDS011;49026;52.600;4.694;2024-02-04T14:20:02;18.13;;;2.95;;
62724;SDS011;49026;52.600;4.694;2024-02-04T14:22:29;23.40;;;3.53;;
62724;SDS011;49026;52.600;4.694;2024-02-04T14:24:55;29.90;;;3.67;;
62724;SDS011;49026;52.600;4.694;2024-02-04T14:27:22;26.75;;;3.17;;
62724;SDS011;49026;52.600;4.694;2024-02-04T14:29:48;25.30;;;3.15;;
62724;SDS011;49026;52.600;4.694;2024-02-04T14:32:13;15.38;;;3.08;;
62724;SDS011;49026;52.600;4.694;2024-02-04T14:34:41;22.02;;;3.33;;
62724;SDS011;49026;52.600;4.694;2024-02-04T14:37:06;20.08;;;3.58;;
62724;SDS011;49026;52.600;4.694;2024-02-04T14:39:32;24.70;;;3.70;;
62724;SDS011;49026;52.600;4.694;2024-02-04T14:41:59;17.45;;;2.55;;
62724;SDS011;49026;52.600;4.694;2024-02-04T14:44:26;22.10;;;3.47;;
62724;SDS011;49026;52.600;4.694;2024-02-04T14:46:52;35.90;;;4.93;;
62724;SDS011;49026;52.600;4.694;2024-02-04T14:49:17;17.80;;;3.25;;